createdAt,value
2023-03-11T00:00:41.885Z,96237.06
2023-03-11T00:03:24.849Z,96257.75
2023-03-11T00:05:54.250Z,96259.91
2023-03-11T00:08:24.663Z,96267.06
2023-03-11T00:10:56.396Z,96263.59
2023-03-11T00:13:23.953Z,96273.00
2023-03-11T00:15:56.919Z,96283.28
2023-03-11T00:18:31.314Z,96309.84
2023-03-11T00:21:01.201Z,96326.50
2023-03-11T00:23:29.126Z,96348.84
2023-03-11T00:25:56.947Z,96359.16
2023-03-11T00:28:26.897Z,96371.56
2023-03-11T00:30:55.306Z,96368.78
2023-03-11T00:33:23.520Z,96386.97
2023-03-11T00:35:51.742Z,96398.22
2023-03-11T00:38:19.628Z,96400.09
2023-03-11T00:40:49.396Z,96412.44
2023-03-11T00:43:17.357Z,96421.63
2023-03-11T00:54:04.851Z,96446.69
2023-03-11T00:56:32.708Z,96435.72
2023-03-11T00:59:00.160Z,96447.94
2023-03-11T01:01:27.740Z,96448.72
2023-03-11T01:03:55.045Z,96455.53
2023-03-11T01:06:23.389Z,96463.19
2023-03-11T01:08:50.722Z,96464.22
2023-03-11T01:11:18.270Z,96482.03
2023-03-11T01:13:45.191Z,96486.00
2023-03-11T01:16:12.542Z,96472.19
2023-03-11T01:18:39.459Z,96483.75
2023-03-11T01:21:07.075Z,96495.16
2023-03-11T01:23:33.994Z,96492.47
2023-03-11T01:26:01.176Z,96493.00
2023-03-11T01:28:28.108Z,96505.78
2023-03-11T01:30:55.355Z,96499.72
2023-03-11T01:33:22.380Z,96506.88
2023-03-11T01:35:49.632Z,96508.06
2023-03-11T01:38:17.353Z,96517.59
2023-03-11T01:40:51.596Z,96511.03
2023-03-11T01:43:38.919Z,96506.63
2023-03-11T01:46:18.074Z,96511.69
2023-03-11T01:48:49.545Z,96516.16
2023-03-11T01:51:30.512Z,96523.13
2023-03-11T01:54:04.109Z,96528.88
2023-03-11T01:56:32.939Z,96530.38
2023-03-11T01:59:00.333Z,96527.72
2023-03-11T02:01:27.790Z,96530.06
2023-03-11T02:03:56.682Z,96536.63
2023-03-11T02:06:25.759Z,96532.41
2023-03-11T02:08:54.356Z,96557.84
2023-03-11T02:11:30.697Z,96541.47
2023-03-11T02:14:04.730Z,96537.88
2023-03-11T02:16:33.175Z,96550.25
2023-03-11T02:19:23.045Z,96549.91
2023-03-11T02:21:50.354Z,96561.00
2023-03-11T02:24:35.828Z,96556.00
2023-03-11T02:27:11.083Z,96573.41
2023-03-11T02:29:39.158Z,96573.69
2023-03-11T02:32:10.202Z,96570.22
2023-03-11T02:34:39.707Z,96572.00
2023-03-11T02:37:10.996Z,96572.28
2023-03-11T02:39:48.295Z,96580.13
2023-03-11T02:42:32.431Z,96580.94
2023-03-11T02:45:12.557Z,96596.81
2023-03-11T02:47:41.440Z,96603.91
2023-03-11T02:50:13.713Z,96596.13
2023-03-11T02:52:41.562Z,96609.56
2023-03-11T02:55:11.965Z,96614.19
2023-03-11T02:57:39.193Z,96614.41
2023-03-11T03:00:14.291Z,96614.81
2023-03-11T03:02:43.807Z,96617.75
2023-03-11T03:05:11.953Z,96628.91
2023-03-11T03:07:39.287Z,96623.53
2023-03-11T03:10:07.693Z,96624.59
2023-03-11T03:12:37.699Z,96620.31
2023-03-11T03:15:05.375Z,96634.44
2023-03-11T03:17:32.901Z,96634.56
2023-03-11T03:19:59.879Z,96630.66
2023-03-11T03:22:29.436Z,96652.50
2023-03-11T03:24:56.397Z,96641.66
2023-03-11T03:27:23.669Z,96651.97
2023-03-11T03:29:50.601Z,96650.50
2023-03-11T03:32:17.758Z,96644.94
2023-03-11T03:34:44.741Z,96654.41
2023-03-11T03:37:12.090Z,96661.28
2023-03-11T03:39:39.212Z,96677.06
2023-03-11T03:42:06.922Z,96676.22
2023-03-11T03:44:33.934Z,96661.50
2023-03-11T03:47:01.424Z,96671.56
2023-03-11T03:49:28.351Z,96678.22
2023-03-11T03:51:55.526Z,96689.34
2023-03-11T03:54:22.653Z,96684.63
2023-03-11T03:56:49.770Z,96690.91
2023-03-11T03:59:16.708Z,96709.22
2023-03-11T04:01:43.837Z,96699.63
2023-03-11T04:04:10.703Z,96719.66
2023-03-11T04:06:38.055Z,96727.25
2023-03-11T04:09:05.003Z,96716.97
2023-03-11T04:11:33.294Z,96724.66
2023-03-11T04:14:00.296Z,96720.34
2023-03-11T04:16:27.604Z,96733.94
2023-03-11T04:18:54.777Z,96732.69
2023-03-11T04:21:22.699Z,96756.50
2023-03-11T04:23:50.728Z,96742.03
2023-03-11T04:26:18.016Z,96748.53
2023-03-11T04:28:44.861Z,96767.84
2023-03-11T04:31:12.635Z,96752.53
2023-03-11T04:33:39.713Z,96767.16
2023-03-11T04:36:09.019Z,96746.69
2023-03-11T04:38:36.320Z,96761.91
2023-03-11T04:41:06.293Z,96763.75
2023-03-11T04:43:34.289Z,96774.38
2023-03-11T04:46:01.770Z,96772.75
2023-03-11T04:48:28.812Z,96781.78
2023-03-11T04:50:56.155Z,96801.66
2023-03-11T04:53:24.106Z,96801.53
2023-03-11T04:55:52.430Z,96801.72
2023-03-11T04:58:20.290Z,96814.63
2023-03-11T05:00:47.506Z,96828.72
2023-03-11T05:03:15.361Z,96831.47
2023-03-11T05:05:42.754Z,96826.81
2023-03-11T05:08:09.738Z,96834.72
2023-03-11T05:10:37.472Z,96848.16
2023-03-11T05:13:04.599Z,96856.03
2023-03-11T05:15:31.830Z,96850.81
2023-03-11T05:17:59.080Z,96896.16
2023-03-11T05:20:26.413Z,96867.34
2023-03-11T05:22:53.539Z,96884.81
2023-03-11T05:25:20.677Z,96879.50
2023-03-11T05:27:47.637Z,96892.56
2023-03-11T05:30:15.441Z,96891.09
2023-03-11T05:32:42.414Z,96908.03
2023-03-11T05:35:10.019Z,96914.97
2023-03-11T05:37:39.202Z,96915.06
2023-03-11T05:40:11.075Z,96928.56
2023-03-11T05:42:41.307Z,96936.56
2023-03-11T05:45:10.060Z,96942.66
2023-03-11T05:47:37.058Z,96951.00
2023-03-11T05:50:06.055Z,96952.63
2023-03-11T05:52:33.939Z,96956.06
2023-03-11T05:55:01.336Z,96952.44
2023-03-11T05:57:28.466Z,96972.88
2023-03-11T05:59:55.788Z,96970.72
2023-03-11T06:02:23.468Z,96974.81
2023-03-11T06:04:51.262Z,96986.72
2023-03-11T06:07:18.311Z,96984.03
2023-03-11T06:09:45.665Z,96984.66
2023-03-11T06:12:12.980Z,97008.44
2023-03-11T06:14:40.294Z,97013.38
2023-03-11T06:17:07.555Z,97014.97
2023-03-11T06:19:34.828Z,97025.13
2023-03-11T06:22:03.049Z,97030.47
2023-03-11T06:24:30.512Z,97036.34
2023-03-11T06:26:57.543Z,97056.53
2023-03-11T06:29:26.712Z,97050.97
2023-03-11T06:31:53.870Z,97069.13
2023-03-11T06:34:21.921Z,97081.19
2023-03-11T06:36:48.905Z,97077.03
2023-03-11T06:39:16.161Z,97087.56
2023-03-11T06:41:43.130Z,97100.03
2023-03-11T06:44:11.865Z,97105.69
2023-03-11T06:46:38.890Z,97122.66
2023-03-11T06:49:06.143Z,97125.34
2023-03-11T06:51:33.802Z,97135.47
2023-03-11T06:54:01.172Z,97130.81
2023-03-11T06:56:46.092Z,97154.53
2023-03-11T06:59:15.555Z,97146.19
2023-03-11T07:01:42.530Z,97153.66
2023-03-11T07:04:11.161Z,97171.00
2023-03-11T07:06:38.199Z,97168.41
2023-03-11T07:09:05.522Z,97167.13
2023-03-11T07:11:33.162Z,97181.94
2023-03-11T07:14:00.702Z,97195.41
2023-03-11T07:16:31.214Z,97209.13
2023-03-11T07:19:03.174Z,97212.22
2023-03-11T07:21:31.907Z,97216.50
2023-03-11T07:24:05.389Z,97205.47
2023-03-11T07:26:35.831Z,97230.47
2023-03-11T07:29:03.682Z,97230.81
2023-03-11T07:31:34.614Z,97231.63
2023-03-11T07:34:06.406Z,97233.56
2023-03-11T07:36:33.362Z,97242.81
2023-03-11T07:39:04.750Z,97246.03
2023-03-11T07:41:34.748Z,97258.63
2023-03-11T07:44:03.884Z,97258.91
2023-03-11T07:46:32.303Z,97277.56
2023-03-11T07:49:01.832Z,97274.22
2023-03-11T07:51:32.617Z,97284.25
2023-03-11T07:54:01.738Z,97283.53
2023-03-11T07:56:32.948Z,97294.19
2023-03-11T07:59:02.393Z,97296.44
2023-03-11T08:01:47.196Z,97290.91
2023-03-11T08:04:17.203Z,97308.91
2023-03-11T08:06:47.573Z,97307.72
2023-03-11T08:09:15.444Z,97309.19
2023-03-11T08:11:43.135Z,97318.28
2023-03-11T08:14:10.782Z,97326.00
2023-03-11T08:16:41.273Z,97331.91
2023-03-11T08:19:12.972Z,97329.28
2023-03-11T08:21:40.204Z,97330.09
2023-03-11T08:24:07.861Z,97331.00
2023-03-11T08:26:34.928Z,97336.44
2023-03-11T08:29:02.204Z,97341.28
2023-03-11T08:31:32.995Z,97351.28
2023-03-11T08:34:07.610Z,97354.69
2023-03-11T08:36:35.237Z,97359.56
2023-03-11T08:39:03.722Z,97367.97
2023-03-11T08:41:31.324Z,97372.50
2023-03-11T08:43:58.767Z,97386.78
2023-03-11T08:46:28.892Z,97384.41
2023-03-11T08:49:00.935Z,97384.03
2023-03-11T08:51:30.556Z,97400.56
2023-03-11T08:53:58.732Z,97395.09
2023-03-11T08:56:26.389Z,97392.16
2023-03-11T08:58:53.964Z,97403.72
2023-03-11T09:01:21.194Z,97406.81
2023-03-11T09:03:48.909Z,97421.53
2023-03-11T09:06:17.488Z,97414.50
2023-03-11T09:08:46.706Z,97427.22
2023-03-11T09:11:16.111Z,97427.84
2023-03-11T09:13:51.723Z,97432.13
2023-03-11T09:16:23.287Z,97435.59
2023-03-11T09:18:50.924Z,97442.56
2023-03-11T09:21:18.514Z,97444.44
2023-03-11T09:23:46.365Z,97453.63
2023-03-11T09:26:14.722Z,97448.19
2023-03-11T09:28:42.990Z,97455.16
2023-03-11T09:31:10.261Z,97471.94
2023-03-11T09:33:42.457Z,97475.81
2023-03-11T09:36:19.608Z,97490.03
2023-03-11T09:38:47.731Z,97490.53
2023-03-11T09:41:32.584Z,97505.31
2023-03-11T09:44:39.551Z,97499.25
2023-03-11T09:47:46.933Z,97517.34
2023-03-11T09:50:58.312Z,97510.44
2023-03-11T09:53:42.459Z,97519.59
2023-03-11T09:56:22.124Z,97507.91
2023-03-11T09:58:55.729Z,97523.81
2023-03-11T10:01:44.647Z,97513.78
2023-03-11T10:04:20.333Z,97522.53
2023-03-11T10:06:48.174Z,97537.09
2023-03-11T10:09:41.027Z,97539.44
2023-03-11T10:12:37.091Z,97542.75
2023-03-11T10:15:23.588Z,97542.41
2023-03-11T10:18:19.839Z,97541.50
2023-03-11T10:20:58.058Z,97543.78
2023-03-11T10:23:48.850Z,97553.63
2023-03-11T10:26:31.488Z,97564.75
2023-03-11T10:29:23.810Z,97565.03
2023-03-11T10:32:06.495Z,97569.16
2023-03-11T10:34:42.758Z,97577.75
2023-03-11T10:37:49.232Z,97570.06
2023-03-11T10:40:41.901Z,97582.38
2023-03-11T10:43:21.075Z,97577.69
2023-03-11T10:45:51.795Z,97581.88
2023-03-11T10:48:22.012Z,97576.09
2023-03-11T10:51:01.884Z,97580.88
2023-03-11T10:53:30.761Z,97594.50
2023-03-11T10:55:59.699Z,97592.31
2023-03-11T10:58:31.433Z,97599.06
2023-03-11T11:01:25.367Z,97598.22
2023-03-11T11:03:57.026Z,97602.69
2023-03-11T11:06:45.114Z,97595.56
2023-03-11T11:09:26.359Z,97602.41
2023-03-11T11:12:17.671Z,97597.34
2023-03-11T11:14:51.930Z,97603.00
2023-03-11T11:17:29.138Z,97591.88
2023-03-11T11:19:59.243Z,97596.56
2023-03-11T11:22:26.851Z,97609.34
2023-03-11T11:24:56.630Z,97600.53
2023-03-11T11:27:29.329Z,97617.00
2023-03-11T11:30:23.550Z,97613.84
2023-03-11T11:32:53.825Z,97624.97
2023-03-11T11:35:24.616Z,97611.34
2023-03-11T11:37:59.957Z,97621.22
2023-03-11T11:40:34.840Z,97613.25
2023-03-11T11:43:25.047Z,97617.63
2023-03-11T11:46:02.779Z,97627.56
2023-03-11T11:48:54.157Z,97627.97
2023-03-11T11:51:36.685Z,97621.84
2023-03-11T11:54:18.883Z,97633.28
2023-03-11T11:56:46.670Z,97639.50
2023-03-11T11:59:20.141Z,97630.72
2023-03-11T12:02:24.774Z,97639.53
2023-03-11T12:05:06.274Z,97657.22
2023-03-11T12:08:00.132Z,97649.91
2023-03-11T12:10:45.321Z,97648.38
2023-03-11T12:13:18.155Z,97661.00
2023-03-11T12:16:00.256Z,97657.53
2023-03-11T12:19:04.649Z,97660.31
2023-03-11T12:21:59.438Z,97662.25
2023-03-11T12:25:04.890Z,97672.97
2023-03-11T12:27:44.806Z,97672.69
2023-03-11T12:30:27.240Z,97671.06
2023-03-11T12:33:25.242Z,97680.06
2023-03-11T12:35:58.820Z,97687.13
2023-03-11T12:38:38.858Z,97679.06
2023-03-11T12:41:16.248Z,97689.44
2023-03-11T12:43:43.043Z,97686.22
2023-03-11T12:46:18.110Z,97688.09
2023-03-11T12:48:50.464Z,97687.00
2023-03-11T12:51:26.982Z,97692.75
2023-03-11T12:53:55.793Z,97708.31
2023-03-11T12:56:44.830Z,97700.03
2023-03-11T13:00:19.872Z,97694.47
2023-03-11T13:03:12.383Z,97693.41
2023-03-11T13:06:25.855Z,97703.25
2023-03-11T13:08:59.047Z,97699.09
2023-03-11T13:11:31.721Z,97706.66
2023-03-11T13:14:16.342Z,97702.13
2023-03-11T13:16:45.532Z,97711.31
2023-03-11T13:19:32.143Z,97717.84
2023-03-11T13:22:01.995Z,97711.88
2023-03-11T13:24:29.791Z,97719.88
2023-03-11T13:26:59.899Z,97721.22
2023-03-11T13:29:55.344Z,97720.03
2023-03-11T13:32:50.314Z,97722.16
2023-03-11T13:35:51.720Z,97722.69
2023-03-11T13:39:11.334Z,97722.69
2023-03-11T13:41:47.595Z,97732.25
2023-03-11T13:44:29.404Z,97729.22
2023-03-11T13:47:23.742Z,97744.25
2023-03-11T13:49:53.448Z,97746.22
2023-03-11T13:52:55.434Z,97748.72
2023-03-11T13:55:40.485Z,97758.53
2023-03-11T13:58:19.335Z,97760.59
2023-03-11T14:00:58.440Z,97756.94
2023-03-11T14:03:40.567Z,97763.50
2023-03-11T14:06:18.849Z,97771.00
2023-03-11T14:08:55.889Z,97769.91
2023-03-11T14:11:29.552Z,97778.09
2023-03-11T14:13:56.825Z,97779.69
2023-03-11T14:16:35.581Z,97786.03
2023-03-11T14:19:15.416Z,97785.75
2023-03-11T14:21:51.592Z,97783.88
2023-03-11T14:24:25.819Z,97782.44
2023-03-11T14:26:55.915Z,97790.47
2023-03-11T14:29:38.996Z,97787.16
2023-03-11T14:32:27.640Z,97797.34
2023-03-11T14:34:55.942Z,97792.50
2023-03-11T14:37:38.483Z,97796.19
2023-03-11T14:40:32.127Z,97805.06
2023-03-11T14:43:06.795Z,97809.31
2023-03-11T14:45:39.079Z,97813.44
2023-03-11T14:48:38.330Z,97809.09
2023-03-11T14:51:18.193Z,97814.59
2023-03-11T14:54:24.490Z,97816.97
2023-03-11T14:57:43.389Z,97823.78
2023-03-11T15:00:26.931Z,97823.41
2023-03-11T15:03:12.753Z,97830.31
2023-03-11T15:05:58.024Z,97834.81
2023-03-11T15:08:31.082Z,97827.66
2023-03-11T15:11:13.536Z,97831.53
2023-03-11T15:13:46.520Z,97835.63
2023-03-11T15:16:32.913Z,97839.94
2023-03-11T15:19:30.205Z,97841.53
2023-03-11T15:22:07.341Z,97840.53
2023-03-11T15:24:35.258Z,97846.41
2023-03-11T15:27:28.618Z,97847.91
2023-03-11T15:29:57.217Z,97848.38
2023-03-11T15:32:45.728Z,97854.28
2023-03-11T15:35:20.490Z,97855.00
2023-03-11T15:37:51.805Z,97854.63
2023-03-11T15:40:19.129Z,97866.69
2023-03-11T15:42:48.128Z,97868.22
2023-03-11T15:45:20.800Z,97880.00
2023-03-11T15:47:50.775Z,97882.09
2023-03-11T15:50:40.136Z,97885.25
2023-03-11T15:53:10.184Z,97891.19
2023-03-11T15:55:37.471Z,97890.47
2023-03-11T15:58:09.195Z,97897.22
2023-03-11T16:00:37.583Z,97894.66
2023-03-11T16:03:05.445Z,97894.94
2023-03-11T16:05:32.776Z,97904.13
2023-03-11T16:07:59.668Z,97908.31
2023-03-11T16:10:28.810Z,97908.53
2023-03-11T16:12:56.280Z,97907.25
2023-03-11T16:15:31.505Z,97915.16
2023-03-11T16:18:00.389Z,97929.00
2023-03-11T16:20:33.965Z,97929.34
2023-03-11T16:23:02.444Z,97928.38
2023-03-11T16:25:36.267Z,97939.56
2023-03-11T16:28:04.282Z,97950.75
2023-03-11T16:30:35.061Z,97959.25
2023-03-11T16:33:04.475Z,97958.53
2023-03-11T16:35:33.390Z,97959.81
2023-03-11T16:38:00.757Z,97961.66
2023-03-11T16:40:29.565Z,97972.06
2023-03-11T16:43:04.995Z,97965.47
2023-03-11T16:45:32.942Z,97968.13
2023-03-11T16:48:00.336Z,97974.41
2023-03-11T16:50:28.530Z,97970.03
2023-03-11T16:52:57.377Z,97982.38
2023-03-11T16:55:27.122Z,97975.47
2023-03-11T16:57:56.012Z,97983.19
2023-03-11T17:00:25.083Z,97990.84
2023-03-11T17:02:52.809Z,97989.38
2023-03-11T17:05:20.502Z,97992.69
2023-03-11T17:07:47.804Z,98000.59
2023-03-11T17:10:15.023Z,98004.88
2023-03-11T17:12:42.000Z,98004.06
2023-03-11T17:15:09.654Z,98013.59
2023-03-11T17:17:36.745Z,98015.47
2023-03-11T17:20:06.333Z,98033.63
2023-03-11T17:22:33.489Z,98025.94
2023-03-11T17:25:00.861Z,98033.09
2023-03-11T17:27:32.331Z,98037.44
2023-03-11T17:30:05.662Z,98047.22
2023-03-11T17:32:33.472Z,98050.66
2023-03-11T17:35:00.812Z,98060.03
2023-03-11T17:37:27.961Z,98057.47
2023-03-11T17:39:55.264Z,98065.28
2023-03-11T17:42:23.218Z,98057.72
2023-03-11T17:44:52.272Z,98061.59
2023-03-11T17:47:20.486Z,98060.09
2023-03-11T17:49:49.324Z,98066.38
2023-03-11T17:52:16.324Z,98072.25
2023-03-11T17:54:44.185Z,98074.72
2023-03-11T17:57:11.424Z,98073.56
2023-03-11T17:59:38.566Z,98077.00
2023-03-11T18:02:05.873Z,98081.25
2023-03-11T18:04:33.268Z,98083.66
2023-03-11T18:07:00.324Z,98095.81
2023-03-11T18:09:27.975Z,98100.97
2023-03-11T18:11:55.178Z,98102.78
2023-03-11T18:14:22.443Z,98109.69
2023-03-11T18:16:49.462Z,98114.81
2023-03-11T18:19:16.825Z,98114.81
2023-03-11T18:21:44.600Z,98111.25
2023-03-11T18:24:11.849Z,98123.28
2023-03-11T18:26:38.867Z,98124.16
2023-03-11T18:29:06.201Z,98120.84
2023-03-11T18:31:33.271Z,98120.16
2023-03-11T18:34:04.768Z,98118.38
2023-03-11T18:36:37.670Z,98120.97
2023-03-11T18:39:06.411Z,98118.44
2023-03-11T18:41:35.809Z,98126.19
2023-03-11T18:44:04.236Z,98129.06
2023-03-11T18:46:32.506Z,98120.28
2023-03-11T18:49:03.525Z,98128.88
2023-03-11T18:51:32.468Z,98121.94
2023-03-11T18:54:00.692Z,98121.06
2023-03-11T18:56:30.981Z,98117.75
2023-03-11T18:59:00.178Z,98121.13
2023-03-11T19:01:27.878Z,98124.56
2023-03-11T19:03:59.533Z,98141.81
2023-03-11T19:06:29.069Z,98137.50
2023-03-11T19:08:57.957Z,98137.53
2023-03-11T19:11:26.582Z,98133.19
2023-03-11T19:13:54.369Z,98129.03
2023-03-11T19:16:26.020Z,98129.13
2023-03-11T19:18:55.276Z,98135.22
2023-03-11T19:21:23.275Z,98131.75
2023-03-11T19:23:52.931Z,98133.41
2023-03-11T19:26:21.024Z,98136.78
2023-03-11T19:28:51.231Z,98139.44
2023-03-11T19:31:18.220Z,98136.84
2023-03-11T19:33:47.211Z,98141.13
2023-03-11T19:36:14.362Z,98146.38
2023-03-11T19:38:41.797Z,98155.19
2023-03-11T19:41:19.957Z,98157.81
2023-03-11T19:43:48.547Z,98161.38
2023-03-11T19:46:20.421Z,98162.22
2023-03-11T19:48:48.130Z,98161.47
2023-03-11T19:51:17.314Z,98161.59
2023-03-11T19:53:46.059Z,98163.38
2023-03-11T19:56:13.496Z,98168.63
2023-03-11T19:58:43.194Z,98171.41
2023-03-11T20:01:21.241Z,98167.00
2023-03-11T20:03:48.459Z,98166.97
2023-03-11T20:06:18.409Z,98172.13
2023-03-11T20:08:46.054Z,98180.78
2023-03-11T20:11:13.221Z,98177.34
2023-03-11T20:13:43.836Z,98178.25
2023-03-11T20:16:18.510Z,98192.09
2023-03-11T20:18:50.863Z,98186.88
2023-03-11T20:21:18.842Z,98184.28
2023-03-11T20:23:46.101Z,98182.66
2023-03-11T20:26:17.390Z,98184.44
2023-03-11T20:28:44.799Z,98190.59
2023-03-11T20:31:19.789Z,98186.38
2023-03-11T20:33:49.732Z,98187.19
2023-03-11T20:36:21.697Z,98189.81
2023-03-11T20:38:51.922Z,98197.59
2023-03-11T20:41:20.028Z,98187.19
2023-03-11T20:43:47.471Z,98189.81
2023-03-11T20:46:15.045Z,98193.28
2023-03-11T20:48:42.585Z,98192.41
2023-03-11T20:51:16.186Z,98189.81
2023-03-11T20:53:43.498Z,98199.41
2023-03-11T20:56:18.753Z,98196.75
2023-03-11T20:58:48.816Z,98195.00
2023-03-11T21:01:20.909Z,98191.53
2023-03-11T21:03:49.414Z,98198.53
2023-03-11T21:06:22.933Z,98199.44
2023-03-11T21:08:54.168Z,98209.88
2023-03-11T21:11:23.751Z,98203.00
2023-03-11T21:13:52.022Z,98209.06
2023-03-11T21:16:19.963Z,98203.03
2023-03-11T21:18:49.544Z,98203.91
2023-03-11T21:21:18.706Z,98203.97
2023-03-11T21:23:48.842Z,98200.72
2023-03-11T21:26:17.620Z,98196.41
2023-03-11T21:28:46.756Z,98199.97
2023-03-11T21:31:26.007Z,98204.31
2023-03-11T21:33:58.306Z,98212.13
2023-03-11T21:36:25.872Z,98207.72
2023-03-11T21:38:53.277Z,98213.75
2023-03-11T21:41:27.851Z,98202.56
2023-03-11T21:43:57.408Z,98215.56
2023-03-11T21:46:31.062Z,98212.09
2023-03-11T21:49:00.984Z,98211.50
2023-03-11T21:51:28.739Z,98212.34
2023-03-11T21:53:56.732Z,98213.22
2023-03-11T21:56:24.031Z,98208.94
2023-03-11T21:58:53.837Z,98213.28
2023-03-11T22:01:21.172Z,98219.34
2023-03-11T22:03:48.788Z,98211.59
2023-03-11T22:06:16.072Z,98219.38
2023-03-11T22:08:43.450Z,98219.34
2023-03-11T22:11:18.521Z,98217.53
2023-03-11T22:13:49.210Z,98221.03
2023-03-11T22:16:17.200Z,98220.22
2023-03-11T22:18:45.338Z,98221.94
2023-03-11T22:21:16.738Z,98215.94
2023-03-11T22:23:45.241Z,98215.00
2023-03-11T22:26:13.857Z,98214.13
2023-03-11T22:28:41.085Z,98213.38
2023-03-11T22:31:14.504Z,98215.03
2023-03-11T22:33:41.800Z,98212.50
2023-03-11T22:36:10.170Z,98211.59
2023-03-11T22:38:40.041Z,98212.41
2023-03-11T22:41:09.110Z,98210.69
2023-03-11T22:43:38.172Z,98211.53
2023-03-11T22:46:06.297Z,98210.59
2023-03-11T22:48:34.936Z,98217.66
2023-03-11T22:51:02.379Z,98216.81
2023-03-11T22:53:30.752Z,98222.97
2023-03-11T22:55:58.216Z,98211.75
2023-03-11T22:58:25.735Z,98210.03
2023-03-11T23:00:52.914Z,98211.69
2023-03-11T23:03:20.280Z,98211.78
2023-03-11T23:05:47.547Z,98214.38
2023-03-11T23:08:16.739Z,98212.81
2023-03-11T23:10:47.975Z,98218.91
2023-03-11T23:13:16.217Z,98225.06
2023-03-11T23:15:46.564Z,98236.34
2023-03-11T23:18:15.943Z,98247.63
2023-03-11T23:20:44.397Z,98251.19
2023-03-11T23:23:13.332Z,98256.44
2023-03-11T23:25:41.591Z,98248.59
2023-03-11T23:28:09.448Z,98249.47
2023-03-11T23:30:36.884Z,98239.94
2023-03-11T23:33:04.055Z,98242.56
2023-03-11T23:35:32.810Z,98239.16
2023-03-11T23:38:00.798Z,98226.97
2023-03-11T23:40:28.109Z,98221.72
2023-03-11T23:42:55.255Z,98220.88
2023-03-11T23:45:22.563Z,98224.38
2023-03-11T23:47:49.777Z,98235.59
2023-03-11T23:50:17.236Z,98235.66
2023-03-11T23:52:44.417Z,98237.47
2023-03-11T23:55:12.112Z,98243.63
2023-03-11T23:57:39.235Z,98247.13
